Time;durP1;ratioP1;P1;durP2;ratioP2;P2;SDS_P1;SDS_P2;PMS_P1;PMS_P2;Temp;Humidity;BMP_temperature;BMP_pressure;BME280_temperature;BME280_humidity;BME280_pressure;Samples;Min_cycle;Max_cycle;Signal;HPM_P1;HPM_P2
2023/02/08 00:01:11;;;;;;;11.97;8.83;;;0.60;99.90;;;;;;5097328;28;20429;-40
2023/02/08 00:03:37;;;;;;;10.50;9.20;;;0.60;99.90;;;;;;5096912;28;20470;-37
2023/02/08 00:06:03;;;;;;;13.00;9.90;;;0.60;99.90;;;;;;5096969;28;20487;-38
2023/02/08 00:08:29;;;;;;;13.47;10.30;;;0.50;99.90;;;;;;5096947;28;20423;-38
2023/02/08 00:10:55;;;;;;;10.70;9.03;;;0.50;99.90;;;;;;5097560;28;20510;-38
2023/02/08 00:13:20;;;;;;;12.97;9.83;;;0.50;99.90;;;;;;5096938;28;20437;-39
2023/02/08 00:15:46;;;;;;;12.30;9.10;;;0.50;99.90;;;;;;5098547;28;20676;-38
2023/02/08 00:18:12;;;;;;;13.33;8.60;;;0.50;99.90;;;;;;5098580;28;20275;-38
2023/02/08 00:20:39;;;;;;;12.47;8.97;;;0.50;99.90;;;;;;5097879;28;20267;-38
2023/02/08 00:23:05;;;;;;;11.80;9.20;;;0.50;99.90;;;;;;5097535;28;20462;-38
2023/02/08 00:25:31;;;;;;;13.53;9.23;;;0.50;99.90;;;;;;5097088;28;20492;-37
2023/02/08 00:27:56;;;;;;;10.63;9.23;;;0.40;99.90;;;;;;5097907;28;20450;-38
2023/02/08 00:30:22;;;;;;;10.57;9.20;;;0.40;99.90;;;;;;5097623;28;20180;-37
2023/02/08 00:32:49;;;;;;;9.40;7.77;;;0.40;99.90;;;;;;5097693;28;20238;-38
2023/02/08 00:35:15;;;;;;;13.47;10.10;;;0.40;99.90;;;;;;5098183;28;20844;-38
2023/02/08 00:37:40;;;;;;;10.50;8.80;;;0.40;99.90;;;;;;5097780;28;20188;-37
2023/02/08 00:40:07;;;;;;;12.13;9.00;;;0.30;99.90;;;;;;5097287;28;20204;-38
2023/02/08 00:42:32;;;;;;;13.10;8.57;;;0.30;99.90;;;;;;5097904;28;20189;-38
2023/02/08 00:44:58;;;;;;;11.37;8.47;;;0.30;99.90;;;;;;5097512;28;20437;-39
2023/02/08 00:47:24;;;;;;;12.53;8.97;;;0.30;99.90;;;;;;5097151;28;20237;-37
2023/02/08 00:49:50;;;;;;;11.17;8.77;;;0.30;99.90;;;;;;5097592;28;20550;-38
2023/02/08 00:52:15;;;;;;;10.90;9.00;;;0.30;99.90;;;;;;5097775;28;20423;-38
2023/02/08 00:54:41;;;;;;;11.60;8.97;;;0.30;99.90;;;;;;5097712;28;20584;-40
2023/02/08 00:57:07;;;;;;;9.27;7.53;;;0.20;99.90;;;;;;5097293;28;20474;-37
2023/02/08 00:59:33;;;;;;;12.37;8.93;;;0.20;99.90;;;;;;5097434;28;20425;-38
2023/02/08 01:01:58;;;;;;;12.20;8.93;;;0.20;99.90;;;;;;5096877;28;20426;-37
2023/02/08 01:04:24;;;;;;;11.83;8.40;;;0.10;99.90;;;;;;5097312;28;20230;-38
2023/02/08 01:06:50;;;;;;;9.93;8.57;;;0.10;99.90;;;;;;5097636;28;20330;-38
2023/02/08 01:09:15;;;;;;;12.13;7.73;;;0.10;99.90;;;;;;5096515;28;20199;-38
2023/02/08 01:11:41;;;;;;;9.63;8.20;;;0.10;99.90;;;;;;5096744;28;20249;-38
2023/02/08 01:14:07;;;;;;;14.43;9.63;;;0.10;99.90;;;;;;5097502;28;20183;-37
2023/02/08 01:16:33;;;;;;;12.20;8.47;;;0.00;99.90;;;;;;5096978;28;20516;-37
2023/02/08 01:19:00;;;;;;;10.63;8.53;;;-0.10;99.90;;;;;;5097002;28;20192;-38
2023/02/08 01:21:29;;;;;;;13.93;9.90;;;-0.10;99.90;;;;;;5096738;28;20445;-37
2023/02/08 01:23:54;;;;;;;12.33;8.67;;;-0.10;99.90;;;;;;5095747;28;20478;-38
2023/02/08 01:26:21;;;;;;;11.37;8.00;;;-0.10;99.90;;;;;;5096351;28;20909;-38
2023/02/08 01:28:47;;;;;;;10.23;7.57;;;-0.20;99.90;;;;;;5096667;28;20179;-38
2023/02/08 01:31:16;;;;;;;9.80;7.97;;;-0.20;99.90;;;;;;5096876;28;20418;-38
2023/02/08 01:33:42;;;;;;;10.10;7.87;;;-0.20;99.90;;;;;;5097076;28;20430;-37
2023/02/08 01:36:08;;;;;;;11.40;9.10;;;-0.20;99.90;;;;;;5096782;28;20429;-38
2023/02/08 01:38:35;;;;;;;9.73;8.57;;;-0.20;99.90;;;;;;5096993;28;20286;-38
2023/02/08 01:41:01;;;;;;;10.53;8.70;;;-0.30;99.90;;;;;;5096800;28;20442;-38
2023/02/08 01:43:30;;;;;;;12.27;8.10;;;-0.30;99.90;;;;;;5096668;28;20472;-39
2023/02/08 01:45:56;;;;;;;11.30;8.90;;;-0.30;99.90;;;;;;5097276;28;20429;-38
2023/02/08 01:48:25;;;;;;;11.90;8.33;;;-0.40;99.90;;;;;;5096763;28;20418;-36
2023/02/08 01:50:57;;;;;;;11.70;8.30;;;-0.40;99.90;;;;;;5096255;28;20418;-38
2023/02/08 01:53:24;;;;;;;13.40;9.37;;;-0.40;99.90;;;;;;5096193;28;20661;-38
2023/02/08 01:55:52;;;;;;;14.17;9.73;;;-0.40;99.90;;;;;;5096417;28;20422;-37
2023/02/08 01:58:19;;;;;;;11.10;9.33;;;-0.50;99.90;;;;;;5098264;28;20525;-38
2023/02/08 02:00:45;;;;;;;11.93;9.00;;;-0.50;99.90;;;;;;5100046;28;20433;-38
2023/02/08 02:03:11;;;;;;;9.90;8.27;;;-0.50;99.90;;;;;;5100638;28;20560;-37
2023/02/08 02:05:42;;;;;;;13.13;8.80;;;-0.50;99.90;;;;;;5100150;28;20521;-36
2023/02/08 02:08:08;;;;;;;12.93;9.50;;;-0.50;99.90;;;;;;5099756;28;20282;-36
2023/02/08 02:10:36;;;;;;;11.63;9.13;;;-0.60;99.90;;;;;;5100415;28;20474;-36
2023/02/08 02:13:07;;;;;;;11.63;8.93;;;-0.60;99.90;;;;;;5100540;28;20840;-35
2023/02/08 02:15:33;;;;;;;11.97;8.97;;;-0.60;99.90;;;;;;5100009;28;20901;-35
2023/02/08 02:18:00;;;;;;;11.70;9.13;;;-0.60;99.90;;;;;;5100836;28;20418;-37
2023/02/08 02:21:13;;;;;;;12.40;9.20;;;-0.70;99.90;;;;;;5098918;28;20414;-37
2023/02/08 02:24:16;;;;;;;10.97;8.63;;;-0.70;99.90;;;;;;5072174;28;20477;-37
2023/02/08 02:26:47;;;;;;;10.30;8.00;;;-0.70;99.90;;;;;;5099603;28;20722;-36
2023/02/08 02:29:24;;;;;;;12.30;9.20;;;-0.80;99.90;;;;;;5099118;28;20812;-37
2023/02/08 02:31:56;;;;;;;10.87;9.40;;;-0.80;99.90;;;;;;5098727;28;20418;-37
2023/02/08 02:34:37;;;;;;;16.30;10.97;;;-0.80;99.90;;;;;;5099451;28;20421;-38
2023/02/08 02:37:21;;;;;;;15.00;10.10;;;-0.90;99.90;;;;;;5099755;28;20863;-37
2023/02/08 02:39:55;;;;;;;11.87;9.10;;;-0.90;99.90;;;;;;5100204;28;20406;-37
2023/02/08 02:45:08;;;;;;;13.70;10.50;;;-1.00;99.90;;;;;;5099914;28;20463;-36
2023/02/08 02:47:38;;;;;;;12.40;11.07;;;-1.00;99.90;;;;;;5100548;28;20755;-37
2023/02/08 02:50:26;;;;;;;13.00;9.80;;;-1.00;99.90;;;;;;5098839;28;20698;-37
2023/02/08 02:53:18;;;;;;;12.97;10.27;;;-1.00;99.90;;;;;;5099966;28;20676;-39
2023/02/08 02:55:47;;;;;;;12.00;9.43;;;-1.10;99.90;;;;;;5100136;28;20509;-37
2023/02/08 02:58:17;;;;;;;13.80;10.63;;;-1.20;99.90;;;;;;5098727;28;20407;-37
2023/02/08 03:00:44;;;;;;;15.90;10.73;;;-1.20;99.90;;;;;;5098516;28;20430;-37
2023/02/08 03:03:22;;;;;;;12.47;9.57;;;-1.20;99.90;;;;;;5099510;28;20458;-37
2023/02/08 03:05:49;;;;;;;15.47;10.30;;;-1.20;99.90;;;;;;5097578;28;20441;-37
2023/02/08 03:08:32;;;;;;;12.77;10.17;;;-1.30;99.90;;;;;;5098222;28;20418;-37
2023/02/08 03:11:01;;;;;;;13.60;9.80;;;-1.30;99.90;;;;;;5098613;28;20433;-37
2023/02/08 03:13:55;;;;;;;14.73;11.00;;;-1.30;99.90;;;;;;5099239;28;20540;-36
2023/02/08 03:16:36;;;;;;;17.80;10.50;;;-1.40;99.90;;;;;;5099328;28;20422;-37
2023/02/08 03:19:14;;;;;;;13.40;9.93;;;-1.40;99.90;;;;;;5094434;28;20426;-37
2023/02/08 03:21:50;;;;;;;12.80;9.57;;;-1.50;99.90;;;;;;5099477;28;20418;-37
2023/02/08 03:24:34;;;;;;;12.27;9.73;;;-1.50;99.90;;;;;;5100222;28;20534;-37
2023/02/08 03:27:08;;;;;;;15.10;11.10;;;-1.50;99.90;;;;;;5119696;28;20433;-37
2023/02/08 03:30:03;;;;;;;13.53;10.40;;;-1.50;99.90;;;;;;5101328;28;20559;-37
2023/02/08 03:32:46;;;;;;;14.90;10.47;;;-1.50;99.90;;;;;;5099471;28;20415;-37
2023/02/08 03:35:21;;;;;;;14.87;10.57;;;-1.50;99.90;;;;;;5097365;28;20418;-37
2023/02/08 03:37:57;;;;;;;12.20;9.13;;;-1.60;99.90;;;;;;5112098;28;20858;-38
2023/02/08 03:40:32;;;;;;;12.63;9.27;;;-1.60;99.90;;;;;;5119486;28;20570;-37
2023/02/08 03:43:01;;;;;;;13.90;10.00;;;-1.60;99.90;;;;;;5118129;28;20893;-36
2023/02/08 03:45:31;;;;;;;11.23;9.30;;;-1.60;99.90;;;;;;5117272;28;20818;-37
2023/02/08 03:47:59;;;;;;;16.40;11.07;;;-1.60;99.90;;;;;;5118595;28;20406;-37
2023/02/08 03:50:28;;;;;;;12.10;10.00;;;-1.60;99.90;;;;;;5117757;28;20513;-37
2023/02/08 03:52:55;;;;;;;15.63;10.30;;;-1.60;99.90;;;;;;5117431;28;20405;-37
2023/02/08 03:55:24;;;;;;;15.40;9.10;;;-1.60;99.90;;;;;;5117239;28;20839;-37
2023/02/08 03:57:53;;;;;;;14.00;9.67;;;-1.60;99.90;;;;;;5107366;28;20430;-37
2023/02/08 04:00:20;;;;;;;14.50;10.07;;;-1.60;99.90;;;;;;5097172;28;20426;-37
2023/02/08 04:02:53;;;;;;;16.07;10.37;;;-1.60;99.90;;;;;;5095299;28;20651;-37
2023/02/08 04:05:19;;;;;;;15.50;10.03;;;-1.60;99.90;;;;;;5097127;28;20422;-37
2023/02/08 04:07:45;;;;;;;14.07;10.67;;;-1.60;99.90;;;;;;5110445;28;20440;-37
2023/02/08 04:10:11;;;;;;;11.87;9.30;;;-1.60;99.90;;;;;;5117934;28;20436;-37
2023/02/08 04:12:36;;;;;;;13.30;9.57;;;-1.60;99.90;;;;;;5116357;28;20202;-38
2023/02/08 04:15:02;;;;;;;11.73;9.00;;;-1.50;99.90;;;;;;5116196;28;20557;-37
2023/02/08 04:17:28;;;;;;;15.80;9.10;;;-1.60;99.90;;;;;;5116349;28;20182;-36
2023/02/08 04:19:54;;;;;;;11.87;8.80;;;-1.60;99.90;;;;;;5116306;28;20712;-37
2023/02/08 04:22:19;;;;;;;16.30;9.83;;;-1.60;99.90;;;;;;5116519;28;20474;-37
2023/02/08 04:24:45;;;;;;;11.37;9.60;;;-1.60;99.90;;;;;;5117570;28;20231;-38
2023/02/08 04:27:10;;;;;;;15.07;10.03;;;-1.60;99.90;;;;;;5118397;28;20204;-37
2023/02/08 04:29:36;;;;;;;11.60;9.60;;;-1.60;99.90;;;;;;5118280;28;20175;-37
2023/02/08 04:32:02;;;;;;;13.10;10.50;;;-1.60;99.90;;;;;;5117605;28;20549;-37
2023/02/08 04:34:28;;;;;;;13.53;9.07;;;-1.60;99.90;;;;;;5118122;28;20175;-38
2023/02/08 04:36:53;;;;;;;14.33;10.40;;;-1.60;99.90;;;;;;5116882;28;20414;-38
2023/02/08 04:39:19;;;;;;;14.10;9.80;;;-1.60;99.90;;;;;;5116296;28;20187;-37
2023/02/08 04:41:44;;;;;;;13.50;9.97;;;-1.60;99.90;;;;;;5104255;28;20176;-37
2023/02/08 04:44:10;;;;;;;12.67;9.30;;;-1.60;99.90;;;;;;5114580;28;20203;-37
2023/02/08 04:46:36;;;;;;;16.83;9.70;;;-1.60;99.90;;;;;;5117423;28;20185;-37
2023/02/08 04:49:01;;;;;;;12.33;8.70;;;-1.60;99.90;;;;;;5117228;28;20183;-37
2023/02/08 04:51:27;;;;;;;14.87;9.77;;;-1.60;99.90;;;;;;5115724;28;20180;-37
2023/02/08 04:53:52;;;;;;;12.73;9.23;;;-1.60;99.90;;;;;;5115662;28;20180;-37
2023/02/08 04:56:18;;;;;;;13.50;9.00;;;-1.60;99.90;;;;;;5116022;28;20172;-38
2023/02/08 04:58:44;;;;;;;13.27;9.20;;;-1.60;99.90;;;;;;5115897;28;20207;-37
2023/02/08 05:01:09;;;;;;;12.87;9.00;;;-1.60;99.90;;;;;;5116188;28;20250;-37
2023/02/08 05:03:35;;;;;;;13.93;10.40;;;-1.60;99.90;;;;;;5116032;28;20203;-37
2023/02/08 05:06:01;;;;;;;12.30;9.70;;;-1.60;99.90;;;;;;5115956;28;20260;-37
2023/02/08 05:08:27;;;;;;;12.23;8.70;;;-1.60;99.90;;;;;;5115514;28;20409;-39
2023/02/08 05:10:52;;;;;;;10.23;8.23;;;-1.60;99.90;;;;;;5114676;28;20175;-37
2023/02/08 05:13:18;;;;;;;13.60;9.17;;;-1.60;99.90;;;;;;5116611;28;20232;-37
2023/02/08 05:15:43;;;;;;;14.00;8.93;;;-1.60;99.90;;;;;;5116068;28;20175;-37
2023/02/08 05:18:09;;;;;;;11.37;8.00;;;-1.60;99.90;;;;;;5116619;28;20175;-37
2023/02/08 05:20:35;;;;;;;15.37;10.00;;;-1.60;99.90;;;;;;5116597;28;20268;-38
2023/02/08 05:23:00;;;;;;;14.37;9.83;;;-1.60;99.90;;;;;;5116984;28;20473;-37
2023/02/08 05:25:26;;;;;;;13.03;9.40;;;-1.60;99.90;;;;;;5116029;28;20227;-37
2023/02/08 05:27:52;;;;;;;15.00;10.33;;;-1.60;99.90;;;;;;5115373;28;20240;-37
2023/02/08 05:30:17;;;;;;;12.93;10.50;;;-1.60;99.90;;;;;;5113177;28;20284;-38
2023/02/08 05:32:43;;;;;;;11.60;8.97;;;-1.60;99.90;;;;;;5113029;28;20175;-38
2023/02/08 05:35:09;;;;;;;12.17;9.40;;;-1.60;99.90;;;;;;5108395;28;20180;-38
2023/02/08 05:37:34;;;;;;;12.73;9.80;;;-1.70;99.90;;;;;;5093942;28;20606;-39
2023/02/08 05:40:00;;;;;;;13.97;9.87;;;-1.70;99.90;;;;;;5094134;28;20507;-38
2023/02/08 05:42:26;;;;;;;13.40;10.00;;;-1.70;99.90;;;;;;5094963;28;20180;-37
2023/02/08 05:44:51;;;;;;;13.37;9.63;;;-1.70;99.90;;;;;;5094638;28;20553;-37
2023/02/08 05:47:17;;;;;;;13.47;9.70;;;-1.80;99.90;;;;;;5101046;28;20184;-38
2023/02/08 05:49:43;;;;;;;12.60;9.43;;;-1.80;99.90;;;;;;5094882;28;20574;-38
2023/02/08 05:52:08;;;;;;;12.43;10.57;;;-1.80;99.90;;;;;;5094517;28;20180;-38
2023/02/08 05:54:34;;;;;;;15.90;10.80;;;-1.80;99.90;;;;;;5096825;28;20697;-37
2023/02/08 05:56:59;;;;;;;14.07;10.13;;;-1.80;99.90;;;;;;5114647;28;20192;-38
2023/02/08 05:59:25;;;;;;;14.73;10.00;;;-1.80;99.90;;;;;;5113841;28;20550;-37
2023/02/08 06:01:51;;;;;;;12.97;9.37;;;-1.80;99.90;;;;;;5111562;28;20184;-38
2023/02/08 06:04:16;;;;;;;13.57;9.60;;;-1.90;99.90;;;;;;5111088;28;20485;-36
2023/02/08 06:06:42;;;;;;;13.40;9.37;;;-1.90;99.90;;;;;;5109490;28;20208;-37
2023/02/08 06:09:07;;;;;;;13.40;9.30;;;-1.90;99.90;;;;;;5107851;28;20263;-38
2023/02/08 06:11:35;;;;;;;13.27;10.00;;;-1.90;99.90;;;;;;5104814;28;20209;-37
2023/02/08 06:14:00;;;;;;;15.37;10.53;;;-1.90;99.90;;;;;;5106246;28;20203;-37
2023/02/08 06:16:26;;;;;;;13.73;9.70;;;-1.90;99.90;;;;;;5106386;28;21037;-37
2023/02/08 06:18:52;;;;;;;14.70;9.50;;;-1.90;99.90;;;;;;5106722;28;20516;-37
2023/02/08 06:21:17;;;;;;;12.37;9.60;;;-1.90;99.90;;;;;;5106456;28;20188;-37
2023/02/08 06:23:43;;;;;;;16.47;10.40;;;-1.90;99.90;;;;;;5105271;28;20239;-37
2023/02/08 06:26:09;;;;;;;13.97;10.50;;;-1.90;99.90;;;;;;5101205;28;20180;-37
2023/02/08 06:28:34;;;;;;;13.03;9.50;;;-1.90;99.90;;;;;;5089602;28;20553;-37
2023/02/08 06:31:00;;;;;;;12.77;10.07;;;-1.90;99.90;;;;;;5088885;28;20181;-37
2023/02/08 06:33:25;;;;;;;13.83;9.57;;;-1.90;99.90;;;;;;5092031;28;20258;-37
2023/02/08 06:35:51;;;;;;;15.90;10.10;;;-2.00;99.90;;;;;;5088973;28;20616;-38
2023/02/08 06:38:17;;;;;;;17.27;10.47;;;-1.90;99.90;;;;;;5088409;28;20370;-37
2023/02/08 06:40:44;;;;;;;14.10;9.93;;;-1.90;99.90;;;;;;5089127;28;20447;-38
2023/02/08 06:43:10;;;;;;;13.93;10.10;;;-2.00;99.90;;;;;;5086244;28;20196;-37
2023/02/08 06:45:36;;;;;;;14.87;10.07;;;-1.90;99.90;;;;;;5087992;28;20453;-38
2023/02/08 06:48:02;;;;;;;14.03;10.00;;;-1.90;99.90;;;;;;5091723;28;20177;-36
2023/02/08 06:50:27;;;;;;;13.70;10.27;;;-1.90;99.90;;;;;;5091444;28;20208;-37
2023/02/08 06:52:53;;;;;;;13.30;10.07;;;-1.90;99.90;;;;;;5092474;28;20196;-37
2023/02/08 06:55:19;;;;;;;13.37;9.67;;;-1.80;99.90;;;;;;5096576;28;20514;-38
2023/02/08 06:57:44;;;;;;;13.63;10.53;;;-1.80;99.90;;;;;;5094996;28;20567;-38
2023/02/08 07:00:10;;;;;;;12.60;10.17;;;-1.80;99.90;;;;;;5093176;28;20271;-37
2023/02/08 07:02:36;;;;;;;14.90;10.83;;;-1.80;99.90;;;;;;5089936;28;20272;-38
2023/02/08 07:05:02;;;;;;;15.00;10.30;;;-1.70;99.90;;;;;;5091914;28;20577;-37
2023/02/08 07:07:27;;;;;;;14.33;10.07;;;-1.70;99.90;;;;;;5076175;28;20420;-38
2023/02/08 07:09:53;;;;;;;12.70;8.93;;;-1.70;99.90;;;;;;5093355;28;20267;-38
2023/02/08 07:12:19;;;;;;;13.27;9.07;;;-1.60;99.90;;;;;;5093843;28;20581;-38
2023/02/08 07:14:45;;;;;;;19.50;11.43;;;-1.50;99.90;;;;;;5094183;28;20176;-37
2023/02/08 07:17:11;;;;;;;15.23;10.77;;;-1.40;99.90;;;;;;5094240;28;20419;-38
2023/02/08 07:19:37;;;;;;;12.97;9.87;;;-1.20;99.90;;;;;;5095165;28;20165;-38
2023/02/08 07:22:09;;;;;;;16.93;10.67;;;-0.90;99.90;;;;;;5095790;28;20586;-39
2023/02/08 07:24:36;;;;;;;13.43;9.50;;;-0.60;99.90;;;;;;5095859;28;20365;-38
2023/02/08 07:27:02;;;;;;;13.60;10.10;;;-0.20;99.90;;;;;;5096897;28;20419;-37
2023/02/08 07:29:29;;;;;;;15.27;10.47;;;0.40;99.90;;;;;;5096922;28;20450;-38
2023/02/08 07:31:56;;;;;;;13.20;10.10;;;0.90;99.90;;;;;;5094657;28;20590;-40
2023/02/08 07:34:22;;;;;;;12.30;9.43;;;1.30;99.90;;;;;;5096189;28;20689;-40
2023/02/08 07:36:48;;;;;;;15.43;10.30;;;1.60;99.90;;;;;;5097992;28;20434;-39
2023/02/08 07:39:14;;;;;;;13.00;10.40;;;1.90;99.90;;;;;;5097548;28;20832;-36
2023/02/08 07:41:39;;;;;;;16.53;10.00;;;2.20;99.90;;;;;;5098911;28;20452;-38
2023/02/08 07:44:05;;;;;;;14.73;10.33;;;2.60;99.90;;;;;;5100030;28;20219;-36
2023/02/08 07:46:31;;;;;;;15.07;10.67;;;3.20;99.90;;;;;;5099251;28;20168;-38
2023/02/08 07:48:56;;;;;;;16.00;11.23;;;4.00;99.90;;;;;;5098659;28;20275;-36
2023/02/08 07:51:22;;;;;;;13.30;11.67;;;4.80;99.90;;;;;;5095766;28;20176;-36
2023/02/08 07:53:48;;;;;;;15.30;10.43;;;5.60;99.90;;;;;;5094404;28;20219;-38
2023/02/08 07:56:13;;;;;;;15.30;11.60;;;6.30;99.90;;;;;;5095985;28;20177;-36
2023/02/08 07:58:39;;;;;;;15.60;11.03;;;7.00;99.90;;;;;;5095770;28;20554;-37
2023/02/08 08:01:05;;;;;;;12.60;10.27;;;7.60;99.90;;;;;;5092822;28;20267;-37
2023/02/08 08:03:31;;;;;;;15.50;11.67;;;8.00;99.90;;;;;;5094241;28;20246;-37
2023/02/08 08:05:56;;;;;;;14.67;11.37;;;8.30;99.90;;;;;;5075127;28;20466;-37
2023/02/08 08:08:22;;;;;;;14.43;11.30;;;8.50;99.90;;;;;;5091959;28;20268;-37
2023/02/08 08:10:48;;;;;;;14.40;10.87;;;8.50;99.90;;;;;;5089863;28;20585;-37
2023/02/08 08:13:14;;;;;;;12.80;11.00;;;8.50;99.90;;;;;;5093131;28;20181;-38
2023/02/08 08:15:39;;;;;;;16.23;12.67;;;8.50;99.90;;;;;;5093769;28;20430;-37
2023/02/08 08:18:05;;;;;;;12.50;10.93;;;8.60;99.90;;;;;;5092992;28;20184;-39
2023/02/08 08:20:31;;;;;;;14.73;11.37;;;8.70;99.90;;;;;;5092227;28;20172;-37
2023/02/08 08:22:56;;;;;;;16.30;11.43;;;8.90;99.90;;;;;;5093695;28;20180;-37
2023/02/08 08:25:22;;;;;;;12.83;11.00;;;9.20;99.90;;;;;;5093189;28;20346;-38
2023/02/08 08:27:48;;;;;;;14.63;11.07;;;9.80;99.90;;;;;;5093564;28;20177;-37
2023/02/08 08:30:15;;;;;;;14.83;11.53;;;10.60;99.90;;;;;;5094058;28;20172;-38
2023/02/08 08:32:41;;;;;;;13.10;11.50;;;11.30;99.90;;;;;;5095364;28;20415;-38
2023/02/08 08:35:07;;;;;;;17.00;11.93;;;12.20;99.90;;;;;;5093164;28;20430;-40
2023/02/08 08:37:33;;;;;;;4.90;3.20;;;13.10;99.90;;;;;;5092331;28;20180;-41
2023/02/08 08:39:58;;;;;;;5.20;4.17;;;14.40;1.00;;;;;;5091266;28;20418;-42
2023/02/08 08:42:25;;;;;;;7.63;4.60;;;15.90;1.00;;;;;;5089891;28;20415;-41
2023/02/08 08:44:51;;;;;;;8.43;7.10;;;17.10;1.00;;;;;;5091369;28;20200;-40
2023/02/08 08:47:17;;;;;;;10.20;8.87;;;17.80;1.00;;;;;;5092622;28;20414;-40
2023/02/08 08:49:43;;;;;;;12.00;9.87;;;17.80;1.00;;;;;;5093235;28;20828;-39
2023/02/08 08:52:09;;;;;;;12.20;9.87;;;17.90;1.00;;;;;;5093365;28;20255;-41
2023/02/08 08:54:35;;;;;;;11.37;10.17;;;18.10;1.00;;;;;;5092494;28;20176;-41
2023/02/08 08:57:01;;;;;;;14.10;11.53;;;18.20;1.00;;;;;;5093132;28;20487;-40
2023/02/08 08:59:27;;;;;;;12.50;10.87;;;17.80;1.00;;;;;;5093843;28;20422;-41
2023/02/08 09:01:53;;;;;;;12.30;11.07;;;18.50;1.00;;;;;;5094068;28;20204;-41
2023/02/08 09:04:21;;;;;;;12.97;11.07;;;19.20;1.00;;;;;;5093882;28;20204;-43
2023/02/08 09:06:48;;;;;;;12.67;10.67;;;19.80;1.00;;;;;;5094613;28;20582;-40
2023/02/08 09:09:14;;;;;;;12.13;10.90;;;20.40;1.00;;;;;;5093158;28;20889;-42
2023/02/08 09:11:39;;;;;;;11.50;10.40;;;20.50;1.00;;;;;;5095484;28;20857;-40
2023/02/08 09:14:05;;;;;;;11.90;10.80;;;20.80;1.00;;;;;;5092762;28;20470;-41
2023/02/08 09:16:31;;;;;;;13.40;11.37;;;21.50;1.00;;;;;;5091568;28;20275;-42
2023/02/08 09:19:03;;;;;;;12.07;10.77;;;21.80;1.00;;;;;;5094772;28;20204;-42
2023/02/08 09:21:29;;;;;;;11.63;10.43;;;21.60;1.00;;;;;;5094387;28;20519;-42
2023/02/08 09:23:54;;;;;;;11.60;10.53;;;22.20;1.00;;;;;;5093583;28;20482;-39
2023/02/08 09:26:20;;;;;;;12.73;11.43;;;22.50;1.00;;;;;;5094947;28;20208;-40
2023/02/08 09:28:46;;;;;;;11.73;10.67;;;22.90;1.00;;;;;;5091925;28;20442;-40
2023/02/08 09:31:20;;;;;;;11.90;10.70;;;23.20;1.00;;;;;;5090786;28;20458;-39
2023/02/08 09:33:46;;;;;;;11.60;10.40;;;23.60;1.00;;;;;;5089161;28;21003;-38
2023/02/08 09:36:12;;;;;;;12.00;10.80;;;24.30;1.00;;;;;;5092799;28;20428;-39
2023/02/08 09:38:39;;;;;;;12.50;11.20;;;24.90;1.00;;;;;;5093817;28;20416;-38
2023/02/08 09:41:23;;;;;;;12.30;10.97;;;24.80;1.00;;;;;;5094273;28;20430;-38
2023/02/08 09:44:16;;;;;;;12.57;11.30;;;24.60;1.00;;;;;;5092905;28;20489;-37
2023/02/08 09:47:29;;;;;;;12.73;11.47;;;24.90;1.00;;;;;;5094460;28;20428;-38
2023/02/08 09:50:03;;;;;;;11.50;10.50;;;25.40;1.00;;;;;;5009380;28;20879;-38
2023/02/08 09:52:39;;;;;;;13.03;11.83;;;26.10;1.00;;;;;;5010677;28;20755;-38
2023/02/08 09:55:22;;;;;;;12.47;11.30;;;26.50;1.00;;;;;;5052939;28;20437;-37
2023/02/08 09:57:50;;;;;;;13.07;11.87;;;26.40;1.00;;;;;;5093472;28;20404;-38
2023/02/08 10:00:20;;;;;;;13.40;12.20;;;26.70;1.00;;;;;;5093566;28;20496;-38
2023/02/08 10:02:47;;;;;;;12.80;11.60;;;27.20;1.00;;;;;;5093167;28;20453;-38
2023/02/08 10:05:18;;;;;;;14.10;12.70;;;27.50;1.00;;;;;;5093273;28;20700;-38
2023/02/08 10:07:43;;;;;;;13.37;12.17;;;27.80;1.00;;;;;;5092157;28;20421;-38
2023/02/08 10:10:30;;;;;;;13.10;11.90;;;28.30;1.00;;;;;;5091297;28;20422;-39
2023/02/08 10:13:18;;;;;;;12.50;11.40;;;28.30;1.00;;;;;;5092515;28;20559;-39
2023/02/08 10:15:55;;;;;;;14.20;12.70;;;28.80;1.00;;;;;;5091810;28;20478;-39
2023/02/08 10:18:26;;;;;;;13.10;12.00;;;29.00;1.00;;;;;;5089676;28;20425;-38
2023/02/08 10:21:12;;;;;;;13.63;12.43;;;29.00;1.00;;;;;;5093791;28;20571;-39
2023/02/08 10:23:50;;;;;;;13.40;12.10;;;29.20;1.00;;;;;;5093749;28;20462;-38
2023/02/08 10:26:38;;;;;;;13.47;12.20;;;29.10;1.00;;;;;;5096307;28;20418;-38
2023/02/08 10:29:30;;;;;;;12.27;11.27;;;28.80;1.00;;;;;;5098262;28;20418;-39
2023/02/08 10:32:05;;;;;;;13.73;12.43;;;28.40;1.00;;;;;;5097006;28;20426;-37
2023/02/08 10:34:51;;;;;;;13.23;11.97;;;28.10;1.00;;;;;;5096140;28;20413;-38
2023/02/08 10:37:19;;;;;;;12.70;11.40;;;27.80;1.00;;;;;;5117372;27;20494;-36
2023/02/08 10:39:46;;;;;;;12.63;11.40;;;27.70;1.00;;;;;;5117762;28;20675;-37
2023/02/08 10:42:14;;;;;;;11.87;10.87;;;27.70;1.00;;;;;;5115741;28;20847;-37
2023/02/08 10:44:46;;;;;;;12.43;11.33;;;27.60;1.00;;;;;;5117026;28;20455;-37
2023/02/08 10:47:50;;;;;;;12.27;11.17;;;27.80;1.00;;;;;;5115629;28;20424;-38
2023/02/08 10:50:25;;;;;;;12.40;11.40;;;27.80;1.00;;;;;;5117437;28;20412;-39
2023/02/08 10:52:50;;;;;;;12.90;11.70;;;28.10;1.00;;;;;;5117742;28;20436;-38
2023/02/08 10:55:18;;;;;;;13.60;12.40;;;28.20;1.00;;;;;;5116087;28;20859;-37
2023/02/08 10:57:47;;;;;;;13.40;11.97;;;28.10;1.00;;;;;;5115918;28;20184;-38
2023/02/08 11:00:13;;;;;;;12.93;11.73;;;28.10;1.00;;;;;;5115804;28;20392;-37
2023/02/08 11:02:40;;;;;;;11.77;10.77;;;28.30;1.00;;;;;;5116060;28;20449;-38
2023/02/08 11:05:14;;;;;;;12.17;11.10;;;28.80;1.00;;;;;;5116530;28;20484;-38
2023/02/08 11:07:40;;;;;;;13.23;12.00;;;29.60;1.00;;;;;;5114008;28;20398;-38
2023/02/08 11:10:18;;;;;;;11.20;10.10;;;30.10;1.00;;;;;;5116161;28;20396;-39
2023/02/08 11:13:13;;;;;;;9.70;8.80;;;31.00;1.00;;;;;;5116311;28;20400;-39
2023/02/08 11:15:51;;;;;;;10.40;9.30;;;32.10;1.00;;;;;;5107321;28;20404;-42
2023/02/08 11:18:22;;;;;;;9.73;8.63;;;32.90;1.00;;;;;;5098451;28;20429;-38
2023/02/08 11:20:51;;;;;;;9.47;8.53;;;33.20;1.00;;;;;;5116202;28;20501;-43
2023/02/08 11:23:26;;;;;;;9.47;8.67;;;33.60;1.00;;;;;;5098724;28;20439;-39
2023/02/08 11:25:53;;;;;;;10.67;9.60;;;34.20;1.00;;;;;;5115372;28;20919;-40
2023/02/08 11:28:28;;;;;;;8.83;7.87;;;34.40;1.00;;;;;;5114283;28;20486;-42
2023/02/08 11:30:59;;;;;;;8.53;7.83;;;34.40;1.00;;;;;;5111912;28;20429;-40
2023/02/08 11:33:26;;;;;;;9.93;9.03;;;34.70;1.00;;;;;;5114749;28;20854;-41
2023/02/08 11:35:56;;;;;;;8.70;7.90;;;34.70;1.00;;;;;;5115206;28;20457;-39
2023/02/08 11:38:26;;;;;;;8.27;7.57;;;35.00;1.00;;;;;;5114262;28;20699;-39
2023/02/08 11:40:54;;;;;;;10.10;9.03;;;35.30;1.00;;;;;;5114973;28;20425;-40
2023/02/08 11:43:23;;;;;;;8.67;7.83;;;35.20;1.00;;;;;;5114693;28;20475;-42
2023/02/08 11:45:49;;;;;;;8.70;7.90;;;35.30;1.00;;;;;;5096268;28;20437;-40
2023/02/08 11:48:34;;;;;;;8.80;8.10;;;35.20;1.00;;;;;;5113066;28;20453;-39
2023/02/08 11:51:03;;;;;;;8.73;8.03;;;35.20;1.00;;;;;;5113846;28;20445;-41
2023/02/08 11:53:35;;;;;;;9.33;8.47;;;35.70;1.00;;;;;;5115150;28;20793;-40
2023/02/08 11:56:04;;;;;;;10.07;9.20;;;35.90;1.00;;;;;;5114692;28;20795;-38
2023/02/08 11:58:29;;;;;;;8.17;7.57;;;36.10;1.00;;;;;;5113057;28;20516;-40
2023/02/08 12:01:05;;;;;;;8.73;8.03;;;36.00;1.00;;;;;;5115809;28;20537;-41
2023/02/08 12:03:37;;;;;;;8.00;7.30;;;36.10;1.00;;;;;;5114339;28;20476;-40
2023/02/08 12:06:21;;;;;;;7.50;6.80;;;36.00;1.00;;;;;;5114510;28;20684;-39
2023/02/08 12:09:06;;;;;;;7.60;7.00;;;36.10;1.00;;;;;;5116170;28;20656;-38
2023/02/08 12:11:48;;;;;;;6.90;6.30;;;36.20;1.00;;;;;;5114809;28;20665;-43
2023/02/08 12:14:36;;;;;;;7.97;7.37;;;36.30;1.00;;;;;;5111510;28;20432;-39
2023/02/08 12:17:22;;;;;;;7.80;7.20;;;36.40;1.00;;;;;;5105458;28;20437;-40
2023/02/08 12:19:57;;;;;;;7.27;6.70;;;36.90;1.00;;;;;;5057702;28;21006;-41
2023/02/08 12:22:25;;;;;;;7.30;6.60;;;37.00;1.00;;;;;;5072857;28;20410;-39
2023/02/08 12:25:09;;;;;;;8.00;7.33;;;36.80;1.00;;;;;;5077948;28;20490;-41
2023/02/08 12:27:48;;;;;;;9.07;8.27;;;37.10;1.00;;;;;;5092273;28;20658;-41
2023/02/08 12:30:17;;;;;;;8.50;7.73;;;37.10;1.00;;;;;;5091937;28;20974;-40
2023/02/08 12:33:10;;;;;;;7.10;6.50;;;36.90;1.00;;;;;;5092420;28;20403;-39
2023/02/08 12:35:45;;;;;;;7.27;6.57;;;37.40;1.00;;;;;;5105363;28;20434;-39
2023/02/08 12:41:34;;;;;;;6.73;6.23;;;37.40;1.00;;;;;;5094197;28;20409;-40
2023/02/08 12:44:45;;;;;;;6.50;6.00;;;37.20;1.00;;;;;;5090595;28;20856;-41
2023/02/08 12:47:17;;;;;;;6.63;6.10;;;37.30;1.00;;;;;;5096523;28;20461;-41
2023/02/08 12:50:10;;;;;;;6.40;5.90;;;37.30;1.00;;;;;;5093147;28;20423;-39
2023/02/08 12:52:40;;;;;;;7.23;6.53;;;37.20;1.00;;;;;;5092677;28;20427;-37
2023/02/08 12:55:24;;;;;;;5.70;5.30;;;37.20;1.00;;;;;;5088172;28;20467;-40
2023/02/08 12:57:53;;;;;;;5.63;5.13;;;37.20;1.00;;;;;;5087418;28;21034;-40